createdAt,value
2023-11-04T00:02:17.687Z,92869.41
2023-11-04T00:04:46.350Z,92863.47
2023-11-04T00:07:14.116Z,92874.50
2023-11-04T00:09:50.818Z,92873.72
2023-11-04T00:12:20.680Z,92880.16
2023-11-04T00:14:49.994Z,92877.22
2023-11-04T00:17:17.688Z,92869.66
2023-11-04T00:19:47.060Z,92882.88
2023-11-04T00:22:15.740Z,92881.25
2023-11-04T00:24:43.507Z,92873.44
2023-11-04T00:27:12.568Z,92875.34
2023-11-04T00:29:40.302Z,92881.56
2023-11-04T00:32:09.759Z,92882.38
2023-11-04T00:34:37.717Z,92884.50
2023-11-04T00:37:05.810Z,92889.06
2023-11-04T00:39:33.645Z,92884.78
2023-11-04T00:42:01.594Z,92903.63
2023-11-04T00:44:29.512Z,92898.75
2023-11-04T00:46:57.495Z,92902.00
2023-11-04T00:49:26.770Z,92899.84
2023-11-04T00:51:54.647Z,92915.22
2023-11-04T00:54:22.793Z,92909.56
2023-11-04T00:56:51.087Z,92903.66
2023-11-04T00:59:18.857Z,92904.72
2023-11-04T01:01:46.597Z,92904.22
2023-11-04T01:04:14.449Z,92896.94
2023-11-04T01:06:43.656Z,92891.50
2023-11-04T01:09:13.586Z,92898.53
2023-11-04T01:11:45.166Z,92898.53
2023-11-04T01:14:13.075Z,92900.69
2023-11-04T01:16:40.961Z,92901.75
2023-11-04T01:19:08.847Z,92907.66
2023-11-04T01:21:36.660Z,92909.25
2023-11-04T01:24:05.457Z,92907.63
2023-11-04T01:26:33.235Z,92919.44
2023-11-04T01:29:01.042Z,92905.63
2023-11-04T01:31:28.802Z,92905.31
2023-11-04T01:33:56.670Z,92908.53
2023-11-04T01:36:25.065Z,92912.31
2023-11-04T01:38:52.868Z,92913.38
2023-11-04T01:41:22.219Z,92915.53
2023-11-04T01:43:49.954Z,92914.19
2023-11-04T01:46:19.602Z,92918.78
2023-11-04T01:48:47.952Z,92912.34
2023-11-04T01:51:16.504Z,92908.00
2023-11-04T01:53:47.000Z,92902.63
2023-11-04T01:56:16.279Z,92907.97
2023-11-04T01:58:47.439Z,92905.28
2023-11-04T02:01:15.893Z,92913.91
2023-11-04T02:03:43.760Z,92910.66
2023-11-04T02:06:11.623Z,92907.44
2023-11-04T02:08:39.465Z,92916.56
2023-11-04T02:11:07.345Z,92921.66
2023-11-04T02:13:35.258Z,92915.16
2023-11-04T02:16:04.735Z,92918.63
2023-11-04T02:18:32.587Z,92919.66
2023-11-04T02:21:02.175Z,92917.50
2023-11-04T02:23:30.035Z,92925.03
2023-11-04T02:25:57.847Z,92913.72
2023-11-04T02:28:25.617Z,92929.31
2023-11-04T02:30:53.436Z,92923.38
2023-11-04T02:33:21.259Z,92924.19
2023-11-04T02:35:50.919Z,92919.63
2023-11-04T02:38:20.400Z,92922.31
2023-11-04T02:40:48.320Z,92916.91
2023-11-04T02:43:16.189Z,92923.63
2023-11-04T02:45:44.020Z,92926.00
2023-11-04T02:48:11.842Z,92926.56
2023-11-04T02:50:39.674Z,92921.75
2023-11-04T02:53:07.455Z,92908.84
2023-11-04T02:55:36.642Z,92912.34
2023-11-04T02:58:04.411Z,92915.88
2023-11-04T03:00:32.204Z,92923.94
2023-11-04T03:03:00.145Z,92920.72
2023-11-04T03:05:35.049Z,92918.84
2023-11-04T03:08:05.853Z,92917.22
2023-11-04T03:10:33.706Z,92909.13
2023-11-04T03:13:03.029Z,92905.66
2023-11-04T03:15:30.864Z,92912.63
2023-11-04T03:17:58.814Z,92916.72
2023-11-04T03:20:26.723Z,92909.97
2023-11-04T03:22:54.567Z,92913.25
2023-11-04T03:25:22.758Z,92913.81
2023-11-04T03:27:50.660Z,92910.59
2023-11-04T03:30:19.961Z,92914.34
2023-11-04T03:32:48.010Z,92906.28
2023-11-04T03:35:16.212Z,92913.81
2023-11-04T03:37:43.944Z,92905.22
2023-11-04T03:40:13.462Z,92906.00
2023-11-04T03:42:41.336Z,92902.25
2023-11-04T03:45:09.416Z,92909.00
2023-11-04T03:47:38.719Z,92902.56
2023-11-04T03:50:07.785Z,92904.44
2023-11-04T03:52:35.520Z,92899.31
2023-11-04T03:55:03.482Z,92906.28
2023-11-04T03:57:31.286Z,92897.94
2023-11-04T03:59:59.109Z,92901.69
2023-11-04T04:02:26.868Z,92891.19
2023-11-04T04:04:56.169Z,92889.81
2023-11-04T04:07:23.968Z,92897.66
2023-11-04T04:09:52.936Z,92891.72
2023-11-04T04:12:20.754Z,92891.47
2023-11-04T04:14:48.783Z,92891.97
2023-11-04T04:17:16.582Z,92895.97
2023-11-04T04:19:44.418Z,92891.97
2023-11-04T04:22:13.643Z,92893.81
2023-11-04T04:24:41.506Z,92890.88
2023-11-04T04:27:09.399Z,92894.13
2023-11-04T04:29:37.336Z,92886.84
2023-11-04T04:32:05.673Z,92888.75
2023-11-04T04:34:33.520Z,92882.00
2023-11-04T04:37:01.454Z,92883.59
2023-11-04T04:39:30.718Z,92880.31
2023-11-04T04:41:59.012Z,92880.28
2023-11-04T04:44:26.856Z,92872.22
2023-11-04T04:46:54.651Z,92866.03
2023-11-04T04:49:22.510Z,92865.22
2023-11-04T04:51:50.478Z,92865.22
2023-11-04T04:54:18.225Z,92861.44
2023-11-04T04:56:48.559Z,92861.41
2023-11-04T04:59:16.430Z,92853.34
2023-11-04T05:01:44.306Z,92860.84
2023-11-04T05:04:12.349Z,92854.38
2023-11-04T05:06:40.152Z,92852.72
2023-11-04T05:09:08.271Z,92850.00
2023-11-04T05:11:36.068Z,92851.63
2023-11-04T05:14:05.709Z,92848.88
2023-11-04T05:16:33.481Z,92842.16
2023-11-04T05:19:01.709Z,92840.53
2023-11-04T05:21:29.558Z,92835.13
2023-11-04T05:23:57.380Z,92837.25
2023-11-04T05:26:25.213Z,92836.94
2023-11-04T05:28:53.070Z,92833.13
2023-11-04T05:31:22.703Z,92834.72
2023-11-04T05:33:50.667Z,92830.34
2023-11-04T05:36:19.782Z,92834.38
2023-11-04T05:38:47.937Z,92823.88
2023-11-04T05:41:14.798Z,92816.34
2023-11-04T05:43:42.524Z,92814.16
2023-11-04T05:46:11.203Z,92812.00
2023-11-04T05:48:40.516Z,92809.25
2023-11-04T05:51:08.496Z,92808.97
2023-11-04T05:53:36.290Z,92804.09
2023-11-04T05:56:05.010Z,92801.66
2023-11-04T05:58:32.775Z,92811.84
2023-11-04T06:01:00.786Z,92802.69
2023-11-04T06:03:29.874Z,92792.44
2023-11-04T06:05:59.647Z,92796.97
2023-11-04T06:08:28.111Z,92798.06
2023-11-04T06:10:55.932Z,92792.38
2023-11-04T06:13:24.001Z,92802.91
2023-11-04T06:15:52.564Z,92795.88
2023-11-04T06:18:20.515Z,92788.06
2023-11-04T06:20:48.419Z,92798.81
2023-11-04T06:23:17.880Z,92789.13
2023-11-04T06:25:45.752Z,92776.75
2023-11-04T06:28:13.539Z,92778.94
2023-11-04T06:30:41.512Z,92777.88
2023-11-04T06:33:09.433Z,92774.13
2023-11-04T06:35:37.697Z,92777.09
2023-11-04T06:38:07.890Z,92769.84
2023-11-04T06:40:39.459Z,92761.53
2023-11-04T06:43:07.431Z,92759.38
2023-11-04T06:45:35.911Z,92761.81
2023-11-04T06:48:05.473Z,92758.38
2023-11-04T06:50:34.534Z,92753.56
2023-11-04T06:53:02.918Z,92756.00
2023-11-04T06:55:36.981Z,92753.94
2023-11-04T06:58:06.706Z,92748.06
2023-11-04T07:00:35.145Z,92749.16
2023-11-04T07:03:03.495Z,92765.06
2023-11-04T07:05:32.808Z,92758.94
2023-11-04T07:08:01.308Z,92758.72
2023-11-04T07:10:50.017Z,92759.31
2023-11-04T07:13:24.228Z,92768.25
2023-11-04T07:15:57.507Z,92770.72
2023-11-04T07:18:40.562Z,92764.53
2023-11-04T07:21:15.890Z,92759.19
2023-11-04T07:23:48.403Z,92757.88
2023-11-04T07:26:16.329Z,92750.66
2023-11-04T07:28:47.688Z,92740.47
2023-11-04T07:31:17.455Z,92741.03
2023-11-04T07:33:45.886Z,92734.59
2023-11-04T07:36:14.145Z,92729.75
2023-11-04T07:38:42.929Z,92735.97
2023-11-04T07:41:11.089Z,92743.28
2023-11-04T07:43:39.539Z,92734.94
2023-11-04T07:46:09.001Z,92731.47
2023-11-04T07:48:37.102Z,92727.19
2023-11-04T07:51:05.363Z,92726.09
2023-11-04T07:53:34.212Z,92721.28
2023-11-04T07:56:02.689Z,92719.66
2023-11-04T07:58:34.065Z,92715.91
2023-11-04T08:01:02.970Z,92709.44
2023-11-04T08:03:32.294Z,92705.63
2023-11-04T08:06:00.187Z,92704.03
2023-11-04T08:08:29.927Z,92705.63
2023-11-04T08:10:58.874Z,92698.59
2023-11-04T08:13:27.439Z,92686.69
2023-11-04T08:16:00.120Z,92684.78
2023-11-04T08:18:32.896Z,92676.97
2023-11-04T08:21:06.178Z,92675.59
2023-11-04T08:23:35.222Z,92675.28
2023-11-04T08:26:03.369Z,92672.53
2023-11-04T08:28:33.160Z,92667.66
2023-11-04T08:31:02.612Z,92670.03
2023-11-04T08:33:31.363Z,92668.66
2023-11-04T08:35:59.363Z,92672.97
2023-11-04T08:38:29.009Z,92664.53
2023-11-04T08:40:57.653Z,92659.03
2023-11-04T08:43:25.528Z,92643.06
2023-11-04T08:45:54.275Z,92648.72
2023-11-04T08:48:22.277Z,92640.03
2023-11-04T08:50:50.475Z,92637.22
2023-11-04T08:53:28.245Z,92615.75
2023-11-04T08:55:59.204Z,92615.75
2023-11-04T08:58:27.301Z,92610.53
2023-11-04T09:00:55.934Z,92609.31
2023-11-04T09:03:29.040Z,92588.94
2023-11-04T09:05:57.337Z,92586.88
2023-11-04T09:08:48.789Z,92588.09
2023-11-04T09:11:57.460Z,92581.72
2023-11-04T09:18:22.217Z,92567.63
2023-11-04T09:27:07.825Z,92565.25
2023-11-04T09:29:38.735Z,92562.91
2023-11-04T09:32:33.965Z,92558.59
2023-11-04T09:35:43.711Z,92555.94
2023-11-04T09:40:56.218Z,92561.72
2023-11-04T09:43:25.039Z,92548.00
2023-11-04T09:46:06.754Z,92552.72
2023-11-04T09:48:39.154Z,92537.78
2023-11-04T09:51:15.652Z,92539.53
2023-11-04T09:57:41.769Z,92531.88
2023-11-04T10:08:01.001Z,92510.44
2023-11-04T10:14:38.216Z,92498.91
2023-11-04T10:57:25.098Z,92409.97
2023-11-04T10:58:44.743Z,92400.50
2023-11-04T11:01:31.876Z,92394.69
2023-11-04T11:40:25.771Z,92284.53
2023-11-04T12:52:42.595Z,92126.59
2023-11-04T13:23:24.854Z,92082.84
2023-11-04T13:25:52.547Z,92077.41
2023-11-04T13:28:20.319Z,92061.84
2023-11-04T13:30:54.192Z,92059.94
2023-11-04T13:33:22.038Z,92053.38
2023-11-04T13:35:51.214Z,92037.69
2023-11-04T13:38:18.992Z,92040.72
2023-11-04T13:40:46.653Z,92039.31
2023-11-04T13:43:14.443Z,92046.97
2023-11-04T13:45:42.180Z,92051.47
2023-11-04T13:48:09.926Z,92041.38
2023-11-04T13:50:37.686Z,92032.91
2023-11-04T13:53:06.812Z,92032.91
2023-11-04T13:55:34.527Z,92055.00
2023-11-04T13:58:02.695Z,92052.13
2023-11-04T14:00:30.474Z,92046.34
2023-11-04T14:02:58.212Z,92063.78
2023-11-04T14:05:26.174Z,92058.03
2023-11-04T14:07:54.060Z,92047.97
2023-11-04T14:10:23.468Z,92047.28
2023-11-04T14:12:51.561Z,92047.13
2023-11-04T14:15:20.087Z,92054.03
2023-11-04T14:17:48.905Z,92044.56
2023-11-04T14:20:17.048Z,92049.38
2023-11-04T14:22:45.467Z,92043.16
2023-11-04T14:25:13.247Z,92044.25
2023-11-04T14:27:42.609Z,92034.97
2023-11-04T14:30:12.349Z,92034.16
2023-11-04T14:32:40.228Z,92044.91
2023-11-04T14:35:08.428Z,92046.81
2023-11-04T14:37:36.673Z,92048.25
2023-11-04T14:40:10.187Z,92055.31
2023-11-04T14:42:38.474Z,92057.41
2023-11-04T14:45:09.755Z,92062.66
2023-11-04T14:47:37.798Z,92060.09
2023-11-04T14:50:06.405Z,92061.09
2023-11-04T14:52:34.447Z,92067.31
2023-11-04T14:55:02.266Z,92066.38
2023-11-04T14:57:29.971Z,92079.31
2023-11-04T14:59:57.680Z,92087.16
2023-11-04T15:02:26.818Z,92096.59
2023-11-04T15:04:54.610Z,92100.75
2023-11-04T15:07:22.738Z,92099.59
2023-11-04T15:09:50.532Z,92112.78
2023-11-04T15:12:22.042Z,92115.44
2023-11-04T15:14:49.785Z,92124.22
2023-11-04T15:17:17.589Z,92114.38
2023-11-04T15:19:47.385Z,92108.41
2023-11-04T15:22:15.150Z,92117.44
2023-11-04T15:24:45.225Z,92120.66
2023-11-04T15:27:13.111Z,92133.25
2023-11-04T15:29:41.165Z,92142.84
2023-11-04T15:32:08.980Z,92145.56
2023-11-04T15:34:36.779Z,92139.94
2023-11-04T15:37:07.408Z,92148.75
2023-11-04T15:39:35.330Z,92144.31
2023-11-04T15:42:04.858Z,92146.34
2023-11-04T15:44:32.821Z,92152.56
2023-11-04T15:47:00.636Z,92148.81
2023-11-04T15:49:28.333Z,92160.22
2023-11-04T15:51:56.099Z,92169.03
2023-11-04T15:54:26.228Z,92172.13
2023-11-04T15:57:09.137Z,92174.47
2023-11-04T16:06:13.085Z,92173.13
2023-11-04T16:08:40.838Z,92170.81
2023-11-04T16:11:09.903Z,92162.34
2023-11-04T16:13:38.071Z,92175.03
2023-11-04T16:16:07.171Z,92173.94
2023-11-04T16:18:35.269Z,92177.91
2023-11-04T16:21:03.476Z,92164.25
2023-11-04T16:23:31.837Z,92161.25
2023-11-04T16:25:59.935Z,92161.44
2023-11-04T16:28:29.144Z,92166.75
2023-11-04T16:30:57.062Z,92159.63
2023-11-04T16:33:25.005Z,92172.19
2023-11-04T16:35:52.937Z,92173.00
2023-11-04T16:38:21.609Z,92172.38
2023-11-04T16:40:52.385Z,92165.03
2023-11-04T16:44:43.642Z,92169.38
2023-11-04T16:47:23.552Z,92140.84
2023-11-04T16:49:55.535Z,92137.63
2023-11-04T16:52:23.497Z,92146.47
2023-11-04T16:54:51.359Z,92132.94
2023-11-04T16:57:19.171Z,92114.56
2023-11-04T16:59:46.949Z,92099.88
2023-11-04T17:02:16.139Z,92081.44
2023-11-04T17:04:44.196Z,92075.41
2023-11-04T17:07:12.074Z,92062.38
2023-11-04T18:05:38.547Z,92057.03
2023-11-04T18:08:08.187Z,92059.44
2023-11-04T18:10:37.420Z,92043.38
2023-11-04T18:13:05.244Z,92020.63
2023-11-04T18:15:33.761Z,92025.34
2023-11-04T18:18:01.842Z,91998.75
2023-11-04T18:20:29.766Z,91998.25
2023-11-04T18:22:59.045Z,91982.31
2023-11-04T18:25:30.639Z,91969.06
2023-11-04T18:28:04.458Z,91971.28
2023-11-04T18:30:34.268Z,91982.13
2023-11-04T18:33:02.109Z,91995.97
2023-11-04T18:35:31.093Z,92016.94
2023-11-04T18:38:00.629Z,92031.16
2023-11-04T18:40:28.655Z,92061.88
2023-11-04T18:42:56.574Z,92068.09
2023-11-04T18:45:24.337Z,92061.09
2023-11-04T18:47:52.303Z,92041.00
2023-11-04T18:50:22.269Z,92032.88
2023-11-04T18:52:50.102Z,92022.34
2023-11-04T18:56:13.966Z,92036.47
2023-11-04T18:58:43.975Z,92044.31
2023-11-04T19:01:11.842Z,92064.41
2023-11-04T19:03:39.845Z,92090.97
2023-11-04T19:06:34.825Z,92115.03
2023-11-04T19:47:44.975Z,91995.59
2023-11-04T19:49:28.902Z,92000.91
2023-11-04T19:51:56.771Z,92007.13
2023-11-04T19:54:24.616Z,92012.44
2023-11-04T20:42:18.050Z,91993.28
2023-11-04T20:45:27.660Z,92012.56
2023-11-04T20:47:55.896Z,91983.28
2023-11-04T20:54:09.539Z,91957.59
2023-11-04T20:57:00.606Z,91946.56
2023-11-04T20:59:36.203Z,91936.22
2023-11-04T21:09:57.446Z,91947.72
2023-11-04T21:12:33.527Z,91958.38
2023-11-04T21:15:02.912Z,91946.13
2023-11-04T21:17:52.779Z,91941.38
2023-11-04T21:20:21.190Z,91939.16
2023-11-04T21:22:50.102Z,91908.75
2023-11-04T21:25:19.516Z,91944.06
2023-11-04T21:27:55.703Z,91952.69
2023-11-04T21:30:31.213Z,91959.69
2023-11-04T21:33:01.251Z,91955.91
2023-11-04T21:35:30.902Z,91959.94
2023-11-04T21:37:59.955Z,91959.13
2023-11-04T21:40:28.365Z,91946.44
2023-11-04T21:42:56.382Z,91939.44
2023-11-04T21:45:24.334Z,91935.41
2023-11-04T21:47:55.729Z,91923.78
2023-11-04T21:50:23.960Z,91912.63
2023-11-04T21:52:51.965Z,91919.47
2023-11-04T21:55:20.089Z,91916.44
2023-11-04T21:57:48.117Z,91914.56
2023-11-04T22:00:16.902Z,91915.16
2023-11-04T22:02:45.916Z,91926.81
2023-11-04T22:05:15.257Z,91919.34
2023-11-04T22:07:46.107Z,91908.31
2023-11-04T22:10:24.241Z,91935.19
2023-11-04T22:12:52.200Z,91944.53
2023-11-04T22:15:20.321Z,91963.56
2023-11-04T22:17:48.292Z,91956.69
2023-11-04T22:20:17.735Z,91947.63
2023-11-04T22:22:46.679Z,91970.13
2023-11-04T22:25:14.599Z,91955.94
2023-11-04T22:27:42.538Z,91953.22
2023-11-04T22:30:11.583Z,91955.31
2023-11-04T22:32:39.517Z,91962.97
2023-11-04T22:35:07.681Z,91978.50
2023-11-04T22:37:37.000Z,91980.09
2023-11-04T22:40:05.438Z,91989.97
2023-11-04T22:42:33.273Z,91996.03
2023-11-04T22:45:02.613Z,91994.63
2023-11-04T22:47:30.646Z,92001.94
2023-11-04T22:49:58.533Z,92003.38
2023-11-04T22:52:26.567Z,91996.63
2023-11-04T22:54:55.933Z,91999.47
2023-11-04T22:57:23.795Z,91991.81
2023-11-04T22:59:51.705Z,91992.16
2023-11-04T23:02:19.639Z,91962.94
2023-11-04T23:04:47.775Z,91958.63
2023-11-04T23:07:17.403Z,91949.06
2023-11-04T23:09:45.396Z,91957.22
2023-11-04T23:12:16.491Z,91939.78
2023-11-04T23:14:47.061Z,91945.22
2023-11-04T23:17:17.692Z,91923.56
2023-11-04T23:19:45.667Z,91915.31
2023-11-04T23:22:15.152Z,91923.63
2023-11-04T23:24:43.161Z,91926.81
2023-11-04T23:27:11.616Z,91927.59
2023-11-04T23:29:40.870Z,91942.78
2023-11-04T23:32:08.893Z,91943.44
2023-11-04T23:34:39.932Z,91944.44
2023-11-04T23:41:02.897Z,91946.53
2023-11-04T23:43:44.979Z,91934.53
2023-11-04T23:46:17.746Z,91927.69
2023-11-04T23:48:48.218Z,91917.78
2023-11-04T23:51:16.268Z,91914.25
2023-11-04T23:53:44.445Z,91918.56
2023-11-04T23:56:12.337Z,91907.72
2023-11-04T23:58:40.277Z,91897.16
